sensor_id;sensor_type;location;lat;lon;timestamp;temperature;humidity
6102;DHT22;3081;50.584;7.032;2023-08-31T00:01:04;12.90;99.90
6102;DHT22;3081;50.584;7.032;2023-08-31T00:03:31;12.90;99.90
6102;DHT22;3081;50.584;7.032;2023-08-31T00:05:58;12.90;99.90
6102;DHT22;3081;50.584;7.032;2023-08-31T00:08:27;12.90;99.90
6102;DHT22;3081;50.584;7.032;2023-08-31T00:10:58;12.90;99.90
6102;DHT22;3081;50.584;7.032;2023-08-31T00:13:27;12.80;99.90
6102;DHT22;3081;50.584;7.032;2023-08-31T00:15:55;12.90;99.90
6102;DHT22;3081;50.584;7.032;2023-08-31T00:18:22;12.90;99.90
6102;DHT22;3081;50.584;7.032;2023-08-31T00:20:49;12.90;99.90
6102;DHT22;3081;50.584;7.032;2023-08-31T00:23:16;12.80;99.90
6102;DHT22;3081;50.584;7.032;2023-08-31T00:25:44;12.80;99.90
6102;DHT22;3081;50.584;7.032;2023-08-31T00:28:11;12.80;99.90
6102;DHT22;3081;50.584;7.032;2023-08-31T00:30:42;12.80;99.90
6102;DHT22;3081;50.584;7.032;2023-08-31T00:33:10;12.80;99.90
6102;DHT22;3081;50.584;7.032;2023-08-31T00:35:37;12.70;99.90
6102;DHT22;3081;50.584;7.032;2023-08-31T00:38:09;12.70;99.90
6102;DHT22;3081;50.584;7.032;2023-08-31T00:40:39;12.70;99.90
6102;DHT22;3081;50.584;7.032;2023-08-31T00:43:06;12.70;99.90
6102;DHT22;3081;50.584;7.032;2023-08-31T00:45:34;12.70;99.90
6102;DHT22;3081;50.584;7.032;2023-08-31T00:48:03;12.70;99.90
6102;DHT22;3081;50.584;7.032;2023-08-31T00:50:30;12.60;99.90
6102;DHT22;3081;50.584;7.032;2023-08-31T00:52:57;12.70;99.90
6102;DHT22;3081;50.584;7.032;2023-08-31T00:55:24;12.60;99.90
6102;DHT22;3081;50.584;7.032;2023-08-31T00:57:52;12.70;99.90
6102;DHT22;3081;50.584;7.032;2023-08-31T01:00:21;12.80;99.90
6102;DHT22;3081;50.584;7.032;2023-08-31T01:02:58;12.80;99.90
6102;DHT22;3081;50.584;7.032;2023-08-31T01:05:44;12.80;99.90
6102;DHT22;3081;50.584;7.032;2023-08-31T01:08:21;12.90;99.90
6102;DHT22;3081;50.584;7.032;2023-08-31T01:11:00;12.90;99.90
6102;DHT22;3081;50.584;7.032;2023-08-31T01:13:31;12.90;99.90
6102;DHT22;3081;50.584;7.032;2023-08-31T01:16:03;12.90;99.90
6102;DHT22;3081;50.584;7.032;2023-08-31T01:18:31;13.00;99.90
6102;DHT22;3081;50.584;7.032;2023-08-31T01:21:08;13.00;99.90
6102;DHT22;3081;50.584;7.032;2023-08-31T01:23:49;12.90;99.90
6102;DHT22;3081;50.584;7.032;2023-08-31T01:26:17;12.90;99.90
6102;DHT22;3081;50.584;7.032;2023-08-31T01:28:44;12.90;99.90
6102;DHT22;3081;50.584;7.032;2023-08-31T01:31:11;13.00;99.90
6102;DHT22;3081;50.584;7.032;2023-08-31T01:33:38;12.90;99.90
6102;DHT22;3081;50.584;7.032;2023-08-31T01:36:12;13.00;99.90
6102;DHT22;3081;50.584;7.032;2023-08-31T01:38:42;13.00;99.90
6102;DHT22;3081;50.584;7.032;2023-08-31T01:41:14;13.00;99.90
6102;DHT22;3081;50.584;7.032;2023-08-31T01:43:43;13.10;99.90
6102;DHT22;3081;50.584;7.032;2023-08-31T01:46:11;13.10;99.90
6102;DHT22;3081;50.584;7.032;2023-08-31T01:48:39;13.10;99.90
6102;DHT22;3081;50.584;7.032;2023-08-31T01:51:07;13.10;99.90
6102;DHT22;3081;50.584;7.032;2023-08-31T01:53:34;13.10;99.90
6102;DHT22;3081;50.584;7.032;2023-08-31T01:56:01;13.10;99.90
6102;DHT22;3081;50.584;7.032;2023-08-31T01:58:31;13.00;99.90
6102;DHT22;3081;50.584;7.032;2023-08-31T02:00:58;13.00;99.90
6102;DHT22;3081;50.584;7.032;2023-08-31T02:03:25;13.00;99.90
6102;DHT22;3081;50.584;7.032;2023-08-31T02:05:52;13.00;99.90
6102;DHT22;3081;50.584;7.032;2023-08-31T02:08:19;13.00;99.90
6102;DHT22;3081;50.584;7.032;2023-08-31T02:10:46;13.00;99.90
6102;DHT22;3081;50.584;7.032;2023-08-31T02:13:14;13.00;99.90
6102;DHT22;3081;50.584;7.032;2023-08-31T02:15:43;13.00;99.90
6102;DHT22;3081;50.584;7.032;2023-08-31T02:18:10;13.00;99.90
6102;DHT22;3081;50.584;7.032;2023-08-31T02:20:37;12.90;99.90
6102;DHT22;3081;50.584;7.032;2023-08-31T02:23:04;12.90;99.90
6102;DHT22;3081;50.584;7.032;2023-08-31T02:25:31;12.90;99.90
6102;DHT22;3081;50.584;7.032;2023-08-31T02:27:58;12.80;99.90
6102;DHT22;3081;50.584;7.032;2023-08-31T02:30:25;12.80;99.90
6102;DHT22;3081;50.584;7.032;2023-08-31T02:32:54;12.70;99.90
6102;DHT22;3081;50.584;7.032;2023-08-31T02:35:21;12.60;99.90
6102;DHT22;3081;50.584;7.032;2023-08-31T02:37:48;12.60;99.90
6102;DHT22;3081;50.584;7.032;2023-08-31T02:40:15;12.60;99.90
6102;DHT22;3081;50.584;7.032;2023-08-31T02:42:42;12.50;99.90
6102;DHT22;3081;50.584;7.032;2023-08-31T02:45:09;12.50;99.90
6102;DHT22;3081;50.584;7.032;2023-08-31T02:47:36;12.50;99.90
6102;DHT22;3081;50.584;7.032;2023-08-31T02:50:06;12.50;99.90
6102;DHT22;3081;50.584;7.032;2023-08-31T02:52:33;12.40;99.90
6102;DHT22;3081;50.584;7.032;2023-08-31T02:55:00;12.40;99.90
6102;DHT22;3081;50.584;7.032;2023-08-31T02:57:27;12.40;99.90
6102;DHT22;3081;50.584;7.032;2023-08-31T02:59:54;12.30;99.90
6102;DHT22;3081;50.584;7.032;2023-08-31T03:02:20;12.30;99.90
6102;DHT22;3081;50.584;7.032;2023-08-31T03:04:47;12.30;99.90
6102;DHT22;3081;50.584;7.032;2023-08-31T03:07:16;12.20;99.90
6102;DHT22;3081;50.584;7.032;2023-08-31T03:09:47;12.20;99.90
6102;DHT22;3081;50.584;7.032;2023-08-31T03:12:14;12.20;99.90
6102;DHT22;3081;50.584;7.032;2023-08-31T03:14:42;12.10;99.90
6102;DHT22;3081;50.584;7.032;2023-08-31T03:17:08;12.00;99.90
6102;DHT22;3081;50.584;7.032;2023-08-31T03:19:35;11.90;99.90
6102;DHT22;3081;50.584;7.032;2023-08-31T03:22:02;11.90;99.90
6102;DHT22;3081;50.584;7.032;2023-08-31T03:24:31;11.90;99.90
6102;DHT22;3081;50.584;7.032;2023-08-31T03:26:58;11.90;99.90
6102;DHT22;3081;50.584;7.032;2023-08-31T03:29:25;11.90;99.90
6102;DHT22;3081;50.584;7.032;2023-08-31T03:31:54;11.90;99.90
6102;DHT22;3081;50.584;7.032;2023-08-31T03:34:21;11.80;99.90
6102;DHT22;3081;50.584;7.032;2023-08-31T03:36:48;11.80;99.90
6102;DHT22;3081;50.584;7.032;2023-08-31T03:39:15;11.80;99.90
6102;DHT22;3081;50.584;7.032;2023-08-31T03:41:44;11.80;99.90
6102;DHT22;3081;50.584;7.032;2023-08-31T03:44:11;11.80;99.90
6102;DHT22;3081;50.584;7.032;2023-08-31T03:46:38;11.80;99.90
6102;DHT22;3081;50.584;7.032;2023-08-31T03:49:05;11.70;99.90
6102;DHT22;3081;50.584;7.032;2023-08-31T03:51:31;11.70;99.90
6102;DHT22;3081;50.584;7.032;2023-08-31T03:53:58;11.60;99.90
6102;DHT22;3081;50.584;7.032;2023-08-31T03:56:26;11.60;99.90
6102;DHT22;3081;50.584;7.032;2023-08-31T03:58:54;11.60;99.90
6102;DHT22;3081;50.584;7.032;2023-08-31T04:01:21;11.60;99.90
6102;DHT22;3081;50.584;7.032;2023-08-31T04:03:49;11.50;99.90
6102;DHT22;3081;50.584;7.032;2023-08-31T04:06:15;11.60;99.90
6102;DHT22;3081;50.584;7.032;2023-08-31T04:08:42;11.50;99.90
6102;DHT22;3081;50.584;7.032;2023-08-31T04:11:09;11.50;99.90
6102;DHT22;3081;50.584;7.032;2023-08-31T04:13:36;11.40;99.90
6102;DHT22;3081;50.584;7.032;2023-08-31T04:16:05;11.40;99.90
6102;DHT22;3081;50.584;7.032;2023-08-31T04:18:32;11.40;99.90
6102;DHT22;3081;50.584;7.032;2023-08-31T04:20:59;11.40;99.90
6102;DHT22;3081;50.584;7.032;2023-08-31T04:23:29;11.40;99.90
6102;DHT22;3081;50.584;7.032;2023-08-31T04:25:55;11.50;99.90
6102;DHT22;3081;50.584;7.032;2023-08-31T04:28:23;11.50;99.90
6102;DHT22;3081;50.584;7.032;2023-08-31T04:30:50;11.60;99.90
6102;DHT22;3081;50.584;7.032;2023-08-31T04:33:19;11.60;99.90
6102;DHT22;3081;50.584;7.032;2023-08-31T04:35:46;11.70;99.90
6102;DHT22;3081;50.584;7.032;2023-08-31T04:38:13;11.70;99.90
6102;DHT22;3081;50.584;7.032;2023-08-31T04:40:40;11.70;99.90
6102;DHT22;3081;50.584;7.032;2023-08-31T04:43:07;11.70;99.90
6102;DHT22;3081;50.584;7.032;2023-08-31T04:45:33;11.70;99.90
6102;DHT22;3081;50.584;7.032;2023-08-31T04:48:00;11.60;99.90
6102;DHT22;3081;50.584;7.032;2023-08-31T04:50:30;11.60;99.90
6102;DHT22;3081;50.584;7.032;2023-08-31T04:52:56;11.60;99.90
6102;DHT22;3081;50.584;7.032;2023-08-31T04:55:23;11.70;99.90
6102;DHT22;3081;50.584;7.032;2023-08-31T04:57:50;11.70;99.90
6102;DHT22;3081;50.584;7.032;2023-08-31T05:00:18;11.70;99.90
6102;DHT22;3081;50.584;7.032;2023-08-31T05:02:45;11.60;99.90
6102;DHT22;3081;50.584;7.032;2023-08-31T05:05:12;11.60;99.90
6102;DHT22;3081;50.584;7.032;2023-08-31T05:07:40;11.60;99.90
6102;DHT22;3081;50.584;7.032;2023-08-31T05:10:09;11.70;99.90
6102;DHT22;3081;50.584;7.032;2023-08-31T05:12:36;11.70;99.90
6102;DHT22;3081;50.584;7.032;2023-08-31T05:15:03;11.70;99.90
6102;DHT22;3081;50.584;7.032;2023-08-31T05:17:30;11.70;99.90
6102;DHT22;3081;50.584;7.032;2023-08-31T05:19:57;11.70;99.90
6102;DHT22;3081;50.584;7.032;2023-08-31T05:22:24;11.70;99.90
6102;DHT22;3081;50.584;7.032;2023-08-31T05:24:52;11.80;99.90
6102;DHT22;3081;50.584;7.032;2023-08-31T05:27:19;11.80;99.90
6102;DHT22;3081;50.584;7.032;2023-08-31T05:29:46;11.80;99.90
6102;DHT22;3081;50.584;7.032;2023-08-31T05:32:13;11.80;99.90
6102;DHT22;3081;50.584;7.032;2023-08-31T05:34:40;11.90;99.90
6102;DHT22;3081;50.584;7.032;2023-08-31T05:37:07;12.00;99.90
6102;DHT22;3081;50.584;7.032;2023-08-31T05:39:34;12.10;99.90
6102;DHT22;3081;50.584;7.032;2023-08-31T05:42:02;12.20;99.90
6102;DHT22;3081;50.584;7.032;2023-08-31T05:44:29;12.30;99.90
6102;DHT22;3081;50.584;7.032;2023-08-31T05:46:56;12.40;99.90
6102;DHT22;3081;50.584;7.032;2023-08-31T05:49:23;12.60;99.90
6102;DHT22;3081;50.584;7.032;2023-08-31T05:51:50;12.90;99.90
6102;DHT22;3081;50.584;7.032;2023-08-31T05:54:17;13.00;99.90
6102;DHT22;3081;50.584;7.032;2023-08-31T05:56:44;13.10;99.90
6102;DHT22;3081;50.584;7.032;2023-08-31T05:59:13;13.10;99.90
6102;DHT22;3081;50.584;7.032;2023-08-31T06:01:40;13.20;99.90
6102;DHT22;3081;50.584;7.032;2023-08-31T06:04:07;13.20;99.90
6102;DHT22;3081;50.584;7.032;2023-08-31T06:06:34;13.20;99.90
6102;DHT22;3081;50.584;7.032;2023-08-31T06:09:01;13.20;99.90
6102;DHT22;3081;50.584;7.032;2023-08-31T06:11:29;13.20;99.90
6102;DHT22;3081;50.584;7.032;2023-08-31T06:13:56;13.20;99.90
6102;DHT22;3081;50.584;7.032;2023-08-31T06:16:24;13.20;99.90
6102;DHT22;3081;50.584;7.032;2023-08-31T06:18:52;13.30;99.90
6102;DHT22;3081;50.584;7.032;2023-08-31T06:21:19;13.40;99.90
6102;DHT22;3081;50.584;7.032;2023-08-31T06:23:45;13.50;99.90
6102;DHT22;3081;50.584;7.032;2023-08-31T06:26:12;13.50;99.90
6102;DHT22;3081;50.584;7.032;2023-08-31T06:28:39;13.60;99.90
6102;DHT22;3081;50.584;7.032;2023-08-31T06:31:06;13.50;99.90
6102;DHT22;3081;50.584;7.032;2023-08-31T06:33:35;13.50;99.90
6102;DHT22;3081;50.584;7.032;2023-08-31T06:36:03;13.60;99.90
6102;DHT22;3081;50.584;7.032;2023-08-31T06:38:30;13.50;99.90
6102;DHT22;3081;50.584;7.032;2023-08-31T06:40:56;13.60;99.90
6102;DHT22;3081;50.584;7.032;2023-08-31T06:43:25;13.70;99.90
6102;DHT22;3081;50.584;7.032;2023-08-31T06:45:52;13.70;99.90
6102;DHT22;3081;50.584;7.032;2023-08-31T06:48:19;13.70;99.90
6102;DHT22;3081;50.584;7.032;2023-08-31T06:50:48;13.90;99.90
6102;DHT22;3081;50.584;7.032;2023-08-31T06:53:15;14.10;99.90
6102;DHT22;3081;50.584;7.032;2023-08-31T06:55:42;14.20;99.90
6102;DHT22;3081;50.584;7.032;2023-08-31T06:58:09;14.30;99.90
6102;DHT22;3081;50.584;7.032;2023-08-31T07:00:39;14.50;99.90
6102;DHT22;3081;50.584;7.032;2023-08-31T07:03:06;14.60;99.90
6102;DHT22;3081;50.584;7.032;2023-08-31T07:05:33;14.70;99.90
6102;DHT22;3081;50.584;7.032;2023-08-31T07:08:03;14.80;99.90
6102;DHT22;3081;50.584;7.032;2023-08-31T07:10:30;14.80;99.90
6102;DHT22;3081;50.584;7.032;2023-08-31T07:12:57;14.90;99.90
6102;DHT22;3081;50.584;7.032;2023-08-31T07:15:24;14.80;99.90
6102;DHT22;3081;50.584;7.032;2023-08-31T07:17:51;14.90;99.90
6102;DHT22;3081;50.584;7.032;2023-08-31T07:20:18;15.00;99.90
6102;DHT22;3081;50.584;7.032;2023-08-31T07:22:45;15.10;99.90
6102;DHT22;3081;50.584;7.032;2023-08-31T07:25:14;15.20;99.90
6102;DHT22;3081;50.584;7.032;2023-08-31T07:27:41;15.30;99.90
6102;DHT22;3081;50.584;7.032;2023-08-31T07:30:08;15.30;99.90
6102;DHT22;3081;50.584;7.032;2023-08-31T07:32:35;15.40;99.90
6102;DHT22;3081;50.584;7.032;2023-08-31T07:35:03;15.50;99.90
6102;DHT22;3081;50.584;7.032;2023-08-31T07:37:31;15.60;99.90
6102;DHT22;3081;50.584;7.032;2023-08-31T07:39:57;15.70;99.90
6102;DHT22;3081;50.584;7.032;2023-08-31T07:42:26;15.80;99.90
6102;DHT22;3081;50.584;7.032;2023-08-31T07:44:53;15.80;99.90
6102;DHT22;3081;50.584;7.032;2023-08-31T07:47:19;16.00;99.90
6102;DHT22;3081;50.584;7.032;2023-08-31T07:49:46;16.10;99.90
6102;DHT22;3081;50.584;7.032;2023-08-31T07:52:14;16.30;99.90
6102;DHT22;3081;50.584;7.032;2023-08-31T07:54:40;16.60;99.90
6102;DHT22;3081;50.584;7.032;2023-08-31T07:57:08;16.80;99.90
6102;DHT22;3081;50.584;7.032;2023-08-31T07:59:36;17.10;99.90
6102;DHT22;3081;50.584;7.032;2023-08-31T08:02:05;17.20;99.90
6102;DHT22;3081;50.584;7.032;2023-08-31T08:04:32;17.50;99.90
6102;DHT22;3081;50.584;7.032;2023-08-31T08:06:59;17.70;99.90
6102;DHT22;3081;50.584;7.032;2023-08-31T08:09:26;17.80;99.90
6102;DHT22;3081;50.584;7.032;2023-08-31T08:11:52;18.00;99.90
6102;DHT22;3081;50.584;7.032;2023-08-31T08:14:19;17.90;99.90
6102;DHT22;3081;50.584;7.032;2023-08-31T08:16:48;17.90;99.90
6102;DHT22;3081;50.584;7.032;2023-08-31T08:19:21;17.80;99.90
6102;DHT22;3081;50.584;7.032;2023-08-31T08:21:48;17.80;99.90
6102;DHT22;3081;50.584;7.032;2023-08-31T08:24:14;17.70;99.90
6102;DHT22;3081;50.584;7.032;2023-08-31T08:26:41;17.70;99.90
6102;DHT22;3081;50.584;7.032;2023-08-31T08:29:08;17.60;99.90
6102;DHT22;3081;50.584;7.032;2023-08-31T08:31:35;17.60;99.90
6102;DHT22;3081;50.584;7.032;2023-08-31T08:34:03;17.60;99.90
6102;DHT22;3081;50.584;7.032;2023-08-31T08:36:31;17.60;99.90
6102;DHT22;3081;50.584;7.032;2023-08-31T08:38:58;17.70;99.90
6102;DHT22;3081;50.584;7.032;2023-08-31T08:41:29;17.90;99.90
6102;DHT22;3081;50.584;7.032;2023-08-31T08:43:57;18.00;99.90
6102;DHT22;3081;50.584;7.032;2023-08-31T08:46:30;18.00;99.90
6102;DHT22;3081;50.584;7.032;2023-08-31T08:48:59;18.10;99.90
6102;DHT22;3081;50.584;7.032;2023-08-31T08:51:30;18.20;99.90
6102;DHT22;3081;50.584;7.032;2023-08-31T08:53:59;18.30;99.90
6102;DHT22;3081;50.584;7.032;2023-08-31T08:56:26;18.60;99.90
6102;DHT22;3081;50.584;7.032;2023-08-31T08:58:53;19.30;99.90
6102;DHT22;3081;50.584;7.032;2023-08-31T09:01:21;20.30;99.90
6102;DHT22;3081;50.584;7.032;2023-08-31T09:03:49;21.10;99.90
6102;DHT22;3081;50.584;7.032;2023-08-31T09:06:16;22.20;99.90
6102;DHT22;3081;50.584;7.032;2023-08-31T09:08:44;22.50;99.90
6102;DHT22;3081;50.584;7.032;2023-08-31T09:11:19;22.70;99.90
6102;DHT22;3081;50.584;7.032;2023-08-31T09:13:48;22.90;99.90
6102;DHT22;3081;50.584;7.032;2023-08-31T09:16:24;23.40;99.90
6102;DHT22;3081;50.584;7.032;2023-08-31T09:18:51;23.20;99.90
6102;DHT22;3081;50.584;7.032;2023-08-31T09:21:18;22.30;99.90
6102;DHT22;3081;50.584;7.032;2023-08-31T09:23:55;21.60;99.90
6102;DHT22;3081;50.584;7.032;2023-08-31T09:26:22;21.00;99.90
6102;DHT22;3081;50.584;7.032;2023-08-31T09:28:49;20.60;99.90
6102;DHT22;3081;50.584;7.032;2023-08-31T09:31:16;20.00;99.90
6102;DHT22;3081;50.584;7.032;2023-08-31T09:33:50;19.70;99.90
6102;DHT22;3081;50.584;7.032;2023-08-31T09:36:17;19.60;99.90
6102;DHT22;3081;50.584;7.032;2023-08-31T09:38:44;19.50;99.90
6102;DHT22;3081;50.584;7.032;2023-08-31T09:41:13;19.30;99.90
6102;DHT22;3081;50.584;7.032;2023-08-31T09:43:40;19.00;99.90
6102;DHT22;3081;50.584;7.032;2023-08-31T09:46:08;18.80;99.90
6102;DHT22;3081;50.584;7.032;2023-08-31T09:48:36;18.80;99.90
6102;DHT22;3081;50.584;7.032;2023-08-31T09:51:04;19.00;99.90
6102;DHT22;3081;50.584;7.032;2023-08-31T09:53:31;19.60;99.90
6102;DHT22;3081;50.584;7.032;2023-08-31T09:55:59;20.50;99.90
6102;DHT22;3081;50.584;7.032;2023-08-31T09:58:28;22.00;99.90
6102;DHT22;3081;50.584;7.032;2023-08-31T10:00:56;23.10;99.90
6102;DHT22;3081;50.584;7.032;2023-08-31T10:03:25;23.50;99.90
6102;DHT22;3081;50.584;7.032;2023-08-31T10:05:54;22.70;99.90
6102;DHT22;3081;50.584;7.032;2023-08-31T10:08:22;22.00;99.90
6102;DHT22;3081;50.584;7.032;2023-08-31T10:10:52;22.20;99.90
6102;DHT22;3081;50.584;7.032;2023-08-31T10:13:21;22.70;99.90
6102;DHT22;3081;50.584;7.032;2023-08-31T10:15:50;23.10;99.90
6102;DHT22;3081;50.584;7.032;2023-08-31T10:18:17;23.70;99.90
6102;DHT22;3081;50.584;7.032;2023-08-31T10:20:44;24.10;99.90
6102;DHT22;3081;50.584;7.032;2023-08-31T10:23:12;24.50;99.90
6102;DHT22;3081;50.584;7.032;2023-08-31T10:26:01;25.00;99.90
6102;DHT22;3081;50.584;7.032;2023-08-31T10:28:29;25.70;99.90
6102;DHT22;3081;50.584;7.032;2023-08-31T10:31:05;25.90;99.90
6102;DHT22;3081;50.584;7.032;2023-08-31T10:33:33;24.90;99.90
6102;DHT22;3081;50.584;7.032;2023-08-31T10:36:00;23.80;99.90
6102;DHT22;3081;50.584;7.032;2023-08-31T10:38:29;23.30;99.90
6102;DHT22;3081;50.584;7.032;2023-08-31T10:43:47;22.50;99.90
6102;DHT22;3081;50.584;7.032;2023-08-31T10:46:27;22.40;99.90
6102;DHT22;3081;50.584;7.032;2023-08-31T10:48:55;22.40;99.90
6102;DHT22;3081;50.584;7.032;2023-08-31T10:51:23;22.20;99.90
6102;DHT22;3081;50.584;7.032;2023-08-31T10:53:50;22.00;99.90
6102;DHT22;3081;50.584;7.032;2023-08-31T10:56:17;22.10;99.90
6102;DHT22;3081;50.584;7.032;2023-08-31T10:58:56;22.40;99.90
6102;DHT22;3081;50.584;7.032;2023-08-31T11:01:53;22.80;99.90
6102;DHT22;3081;50.584;7.032;2023-08-31T11:04:21;23.50;99.90
6102;DHT22;3081;50.584;7.032;2023-08-31T11:06:48;24.20;99.90
6102;DHT22;3081;50.584;7.032;2023-08-31T11:09:20;24.40;99.90
6102;DHT22;3081;50.584;7.032;2023-08-31T11:11:47;25.00;99.90
6102;DHT22;3081;50.584;7.032;2023-08-31T11:14:14;24.60;99.90
6102;DHT22;3081;50.584;7.032;2023-08-31T11:16:43;24.80;99.90
6102;DHT22;3081;50.584;7.032;2023-08-31T11:19:11;25.50;99.90
6102;DHT22;3081;50.584;7.032;2023-08-31T11:21:38;25.40;99.90
6102;DHT22;3081;50.584;7.032;2023-08-31T11:24:07;25.40;99.30
6102;DHT22;3081;50.584;7.032;2023-08-31T11:26:34;25.50;98.90
6102;DHT22;3081;50.584;7.032;2023-08-31T11:29:06;25.60;98.20
6102;DHT22;3081;50.584;7.032;2023-08-31T11:31:35;25.30;98.20
6102;DHT22;3081;50.584;7.032;2023-08-31T11:34:04;26.20;97.90
6102;DHT22;3081;50.584;7.032;2023-08-31T11:36:33;27.20;97.80
6102;DHT22;3081;50.584;7.032;2023-08-31T11:39:00;28.20;96.00
6102;DHT22;3081;50.584;7.032;2023-08-31T11:41:31;28.20;95.30
6102;DHT22;3081;50.584;7.032;2023-08-31T11:43:59;27.60;94.30
6102;DHT22;3081;50.584;7.032;2023-08-31T11:46:26;27.30;95.00
6102;DHT22;3081;50.584;7.032;2023-08-31T11:48:53;27.60;95.30
6102;DHT22;3081;50.584;7.032;2023-08-31T11:51:20;27.70;93.80
6102;DHT22;3081;50.584;7.032;2023-08-31T11:53:49;27.20;94.10
6102;DHT22;3081;50.584;7.032;2023-08-31T11:56:16;26.10;94.10
6102;DHT22;3081;50.584;7.032;2023-08-31T11:58:43;24.90;94.00
6102;DHT22;3081;50.584;7.032;2023-08-31T12:01:17;23.80;95.00
6102;DHT22;3081;50.584;7.032;2023-08-31T12:03:45;22.70;96.60
6102;DHT22;3081;50.584;7.032;2023-08-31T12:06:15;22.20;98.60
6102;DHT22;3081;50.584;7.032;2023-08-31T12:08:42;22.30;99.40
6102;DHT22;3081;50.584;7.032;2023-08-31T12:11:11;22.50;99.90
6102;DHT22;3081;50.584;7.032;2023-08-31T12:13:38;22.50;99.90
6102;DHT22;3081;50.584;7.032;2023-08-31T12:16:11;22.40;99.90
6102;DHT22;3081;50.584;7.032;2023-08-31T12:18:39;22.20;99.90
6102;DHT22;3081;50.584;7.032;2023-08-31T12:21:07;22.10;99.90
6102;DHT22;3081;50.584;7.032;2023-08-31T12:23:34;22.10;99.90
6102;DHT22;3081;50.584;7.032;2023-08-31T12:26:01;22.30;99.90
6102;DHT22;3081;50.584;7.032;2023-08-31T12:28:32;22.60;99.90
6102;DHT22;3081;50.584;7.032;2023-08-31T12:30:59;23.50;99.90
6102;DHT22;3081;50.584;7.032;2023-08-31T12:33:26;24.70;99.60
6102;DHT22;3081;50.584;7.032;2023-08-31T12:35:53;25.30;97.90
6102;DHT22;3081;50.584;7.032;2023-08-31T12:38:20;25.20;97.20
6102;DHT22;3081;50.584;7.032;2023-08-31T12:40:47;24.60;98.20
6102;DHT22;3081;50.584;7.032;2023-08-31T12:43:14;24.00;98.00
6102;DHT22;3081;50.584;7.032;2023-08-31T12:45:43;23.70;98.70
6102;DHT22;3081;50.584;7.032;2023-08-31T12:48:10;23.30;98.60
6102;DHT22;3081;50.584;7.032;2023-08-31T12:50:37;23.40;99.50
6102;DHT22;3081;50.584;7.032;2023-08-31T12:53:04;23.80;99.70
6102;DHT22;3081;50.584;7.032;2023-08-31T12:55:31;23.80;98.50
6102;DHT22;3081;50.584;7.032;2023-08-31T12:57:57;24.00;97.70
6102;DHT22;3081;50.584;7.032;2023-08-31T13:00:25;24.20;97.20
6102;DHT22;3081;50.584;7.032;2023-08-31T13:02:54;25.10;96.10
6102;DHT22;3081;50.584;7.032;2023-08-31T13:05:21;25.30;95.10
6102;DHT22;3081;50.584;7.032;2023-08-31T13:07:47;24.50;96.10
6102;DHT22;3081;50.584;7.032;2023-08-31T13:10:14;23.80;96.50
6102;DHT22;3081;50.584;7.032;2023-08-31T13:12:42;23.60;97.00
6102;DHT22;3081;50.584;7.032;2023-08-31T13:15:09;23.60;97.50
6102;DHT22;3081;50.584;7.032;2023-08-31T13:17:36;23.80;97.60
6102;DHT22;3081;50.584;7.032;2023-08-31T13:20:06;24.30;96.00
6102;DHT22;3081;50.584;7.032;2023-08-31T13:22:34;24.70;95.00
6102;DHT22;3081;50.584;7.032;2023-08-31T13:25:00;25.80;93.30
6102;DHT22;3081;50.584;7.032;2023-08-31T13:27:27;25.90;93.40
6102;DHT22;3081;50.584;7.032;2023-08-31T13:29:54;25.50;94.00
6102;DHT22;3081;50.584;7.032;2023-08-31T13:32:22;25.20;93.60
6102;DHT22;3081;50.584;7.032;2023-08-31T13:34:49;24.90;94.50
6102;DHT22;3081;50.584;7.032;2023-08-31T13:37:17;24.60;94.80
6102;DHT22;3081;50.584;7.032;2023-08-31T13:42:14;24.50;95.50
6102;DHT22;3081;50.584;7.032;2023-08-31T13:44:41;24.70;93.80
6102;DHT22;3081;50.584;7.032;2023-08-31T13:47:08;25.20;93.70
6102;DHT22;3081;50.584;7.032;2023-08-31T13:49:35;25.30;93.40
6102;DHT22;3081;50.584;7.032;2023-08-31T13:52:02;24.90;93.00
6102;DHT22;3081;50.584;7.032;2023-08-31T13:54:33;24.00;93.50
6102;DHT22;3081;50.584;7.032;2023-08-31T13:57:00;23.40;94.40
6102;DHT22;3081;50.584;7.032;2023-08-31T13:59:28;22.80;95.60
6102;DHT22;3081;50.584;7.032;2023-08-31T14:01:55;22.50;96.10
6102;DHT22;3081;50.584;7.032;2023-08-31T14:04:22;22.40;97.00
6102;DHT22;3081;50.584;7.032;2023-08-31T14:06:48;22.60;97.20
6102;DHT22;3081;50.584;7.032;2023-08-31T14:09:15;22.90;96.50
6102;DHT22;3081;50.584;7.032;2023-08-31T14:11:45;23.20;96.80
6102;DHT22;3081;50.584;7.032;2023-08-31T14:14:12;23.40;96.20
6102;DHT22;3081;50.584;7.032;2023-08-31T14:16:40;23.20;96.50
6102;DHT22;3081;50.584;7.032;2023-08-31T14:19:07;22.60;96.40
6102;DHT22;3081;50.584;7.032;2023-08-31T14:21:34;21.90;97.30
6102;DHT22;3081;50.584;7.032;2023-08-31T14:24:00;21.50;98.00
6102;DHT22;3081;50.584;7.032;2023-08-31T14:26:29;21.30;98.30
6102;DHT22;3081;50.584;7.032;2023-08-31T14:28:58;21.40;98.80
6102;DHT22;3081;50.584;7.032;2023-08-31T14:31:24;22.10;98.20
6102;DHT22;3081;50.584;7.032;2023-08-31T14:33:51;23.00;97.60
6102;DHT22;3081;50.584;7.032;2023-08-31T14:36:19;23.70;95.90
6102;DHT22;3081;50.584;7.032;2023-08-31T14:38:46;23.90;95.30
6102;DHT22;3081;50.584;7.032;2023-08-31T14:41:13;24.00;94.40
6102;DHT22;3081;50.584;7.032;2023-08-31T14:43:40;24.00;95.10
6102;DHT22;3081;50.584;7.032;2023-08-31T14:46:08;24.00;95.30
6102;DHT22;3081;50.584;7.032;2023-08-31T14:48:35;23.60;94.50
6102;DHT22;3081;50.584;7.032;2023-08-31T14:51:02;23.00;95.50
6102;DHT22;3081;50.584;7.032;2023-08-31T14:53:29;22.50;96.40
6102;DHT22;3081;50.584;7.032;2023-08-31T14:55:56;22.10;96.60
6102;DHT22;3081;50.584;7.032;2023-08-31T14:58:23;21.80;97.70
6102;DHT22;3081;50.584;7.032;2023-08-31T15:00:50;21.90;98.30
6102;DHT22;3081;50.584;7.032;2023-08-31T15:03:18;22.10;98.20
6102;DHT22;3081;50.584;7.032;2023-08-31T15:05:48;22.20;97.00
6102;DHT22;3081;50.584;7.032;2023-08-31T15:08:15;22.30;97.60
6102;DHT22;3081;50.584;7.032;2023-08-31T15:10:42;22.30;97.30
6102;DHT22;3081;50.584;7.032;2023-08-31T15:13:09;22.50;96.90
6102;DHT22;3081;50.584;7.032;2023-08-31T15:15:36;22.50;97.00
6102;DHT22;3081;50.584;7.032;2023-08-31T15:18:03;22.50;96.50
6102;DHT22;3081;50.584;7.032;2023-08-31T15:20:32;22.40;97.10
6102;DHT22;3081;50.584;7.032;2023-08-31T15:22:59;22.50;97.30
6102;DHT22;3081;50.584;7.032;2023-08-31T15:25:26;22.50;97.40
6102;DHT22;3081;50.584;7.032;2023-08-31T15:27:52;22.70;98.00
6102;DHT22;3081;50.584;7.032;2023-08-31T15:30:19;23.00;97.90
6102;DHT22;3081;50.584;7.032;2023-08-31T15:32:47;23.30;97.50
6102;DHT22;3081;50.584;7.032;2023-08-31T15:35:14;23.40;97.20
6102;DHT22;3081;50.584;7.032;2023-08-31T15:37:43;23.30;96.90
6102;DHT22;3081;50.584;7.032;2023-08-31T15:40:13;22.80;96.90
6102;DHT22;3081;50.584;7.032;2023-08-31T15:42:40;22.70;97.40
6102;DHT22;3081;50.584;7.032;2023-08-31T15:45:07;22.80;97.70
6102;DHT22;3081;50.584;7.032;2023-08-31T15:47:34;22.80;97.00
6102;DHT22;3081;50.584;7.032;2023-08-31T15:50:03;22.70;97.40
6102;DHT22;3081;50.584;7.032;2023-08-31T15:52:30;23.00;97.50
6102;DHT22;3081;50.584;7.032;2023-08-31T15:55:00;22.90;97.10
6102;DHT22;3081;50.584;7.032;2023-08-31T15:57:27;22.50;97.30
6102;DHT22;3081;50.584;7.032;2023-08-31T15:59:58;22.00;97.90
6102;DHT22;3081;50.584;7.032;2023-08-31T16:02:25;21.60;98.90
6102;DHT22;3081;50.584;7.032;2023-08-31T16:04:52;21.30;99.20
6102;DHT22;3081;50.584;7.032;2023-08-31T16:07:20;20.90;99.90
6102;DHT22;3081;50.584;7.032;2023-08-31T16:09:50;20.60;99.90
6102;DHT22;3081;50.584;7.032;2023-08-31T16:12:18;20.40;99.90